Trout Run, Pennsylvania
Current Conditions -  °F | °C
As of 1:54 AM on Monday 22 Dec 2014 (Local Time) from KIPT Reporting Station
Clear Clear  
Wind Chill: 22°   Ceiling: Unl
Heat Index: 22°   Visibility: 10mi
Dew Point: 17°   Wind: 3mph
Humidity: 82%   Direction: 10°N
Pressure: 30.31"   Gusts: NA
Location:  41.39°N, 77.06°W
Report Text: KIPT 220654Z AUTO 01003KT 10SM CLR M06/M08 A3031 RMK AO2 SLP272 T10561083
Loading
Personal Weather Stations






























Interactive Weather Map New forecast layout! Learn more

10-Day Weather Forecast

Advertisements
Track Severe Weather on mobile